Time;durP1;ratioP1;P1;durP2;ratioP2;P2;SDS_P1;SDS_P2;PMS_P1;PMS_P2;Temp;Humidity;BMP_temperature;BMP_pressure;BME280_temperature;BME280_humidity;BME280_pressure;Samples;Min_cycle;Max_cycle;Signal;HPM_P1;HPM_P2
2022/11/07 00:01:22;;;;;;;4.93;4.53;;;;;;;8.82;100.00;96603.25;5072933;28;20549;-55
2022/11/07 00:03:48;;;;;;;4.33;4.13;;;;;;;8.79;100.00;96614.16;5055311;28;20548;-54
2022/11/07 00:06:19;;;;;;;7.60;7.20;;;;;;;8.74;100.00;96620.06;5072658;28;20186;-55
2022/11/07 00:08:45;;;;;;;6.47;6.07;;;;;;;8.84;100.00;96625.56;5072080;28;20268;-54
2022/11/07 00:11:12;;;;;;;6.10;5.70;;;;;;;8.79;100.00;96630.66;5072465;28;20721;-56
2022/11/07 00:13:37;;;;;;;5.10;4.80;;;;;;;8.70;100.00;96631.94;5072183;28;20276;-51
2022/11/07 00:16:06;;;;;;;5.20;4.90;;;;;;;8.69;100.00;96633.75;5072569;28;20377;-52
2022/11/07 00:18:32;;;;;;;5.50;5.20;;;;;;;8.64;100.00;96641.44;5072739;28;20180;-54
2022/11/07 00:21:02;;;;;;;6.73;6.20;;;;;;;8.65;100.00;96637.81;5054837;28;20552;-56
2022/11/07 00:23:28;;;;;;;6.57;6.23;;;;;;;8.63;100.00;96647.72;5072561;28;20197;-54
2022/11/07 00:25:53;;;;;;;5.33;4.97;;;;;;;8.68;100.00;96654.91;5072443;28;20184;-55
2022/11/07 00:28:19;;;;;;;5.07;4.87;;;;;;;8.66;100.00;96656.91;5072397;28;20189;-58
2022/11/07 00:30:45;;;;;;;6.17;5.57;;;;;;;8.62;100.00;96647.94;5071959;28;20177;-60
2022/11/07 00:33:10;;;;;;;5.50;5.20;;;;;;;8.58;100.00;96660.59;5072051;28;20718;-56
2022/11/07 00:35:45;;;;;;;5.00;4.80;;;;;;;8.62;100.00;96664.41;5079198;28;20232;-56
2022/11/07 00:38:10;;;;;;;5.40;5.13;;;;;;;8.68;100.00;96679.22;5092016;28;20180;-56
2022/11/07 00:40:35;;;;;;;5.70;5.40;;;;;;;8.60;100.00;96669.03;5092428;28;20176;-55
2022/11/07 00:43:01;;;;;;;6.50;6.20;;;;;;;8.59;100.00;96669.25;5092556;28;20204;-58
2022/11/07 00:45:26;;;;;;;6.63;6.33;;;;;;;8.61;100.00;96677.66;5092108;28;20169;-58
2022/11/07 00:47:53;;;;;;;7.03;6.73;;;;;;;8.61;100.00;96675.84;5092557;28;20176;-56
2022/11/07 00:50:19;;;;;;;5.80;5.50;;;;;;;8.63;100.00;96673.03;5092312;28;20252;-57
2022/11/07 00:52:44;;;;;;;5.57;5.17;;;;;;;8.75;100.00;96673.88;5091240;28;20235;-55
2022/11/07 00:55:09;;;;;;;6.23;5.93;;;;;;;8.76;100.00;96684.13;5092362;28;20192;-58
2022/11/07 00:57:35;;;;;;;5.47;5.17;;;;;;;8.76;100.00;96678.09;5090965;28;20180;-58
2022/11/07 01:00:00;;;;;;;5.80;5.50;;;;;;;8.82;100.00;96682.47;5092155;28;20215;-59
2022/11/07 01:02:25;;;;;;;7.57;7.10;;;;;;;8.72;100.00;96696.03;5091713;28;20192;-57
2022/11/07 01:05:09;;;;;;;6.87;6.37;;;;;;;8.78;100.00;96681.31;5092427;28;20169;-59
2022/11/07 01:07:35;;;;;;;6.23;5.93;;;;;;;8.79;100.00;96682.91;5089833;28;20203;-58
2022/11/07 01:10:02;;;;;;;6.50;6.20;;;;;;;8.79;100.00;96689.94;5092378;28;20251;-55
2022/11/07 01:12:27;;;;;;;6.13;5.83;;;;;;;8.70;100.00;96689.41;5091713;28;20173;-58
2022/11/07 01:14:53;;;;;;;6.97;6.67;;;;;;;8.66;100.00;96680.44;5092411;28;20659;-58
2022/11/07 01:17:18;;;;;;;6.53;6.03;;;;;;;8.63;100.00;96686.91;5091071;28;20189;-57
2022/11/07 01:19:43;;;;;;;5.30;5.10;;;;;;;8.51;100.00;96677.38;5092078;28;20208;-58
2022/11/07 01:22:10;;;;;;;6.43;6.13;;;;;;;8.52;100.00;96668.53;5091656;28;20563;-62
2022/11/07 01:24:36;;;;;;;7.87;7.23;;;;;;;8.44;100.00;96669.59;5091407;28;20652;-55
2022/11/07 01:27:01;;;;;;;9.83;9.23;;;;;;;8.45;100.00;96665.19;5092031;28;20185;-58
2022/11/07 01:29:27;;;;;;;9.13;8.63;;;;;;;8.48;100.00;96672.56;5092152;28;20196;-55
2022/11/07 01:31:52;;;;;;;6.40;6.10;;;;;;;8.45;100.00;96668.59;5092213;28;20188;-58
2022/11/07 01:34:18;;;;;;;5.83;5.53;;;;;;;8.46;100.00;96679.84;5091937;28;20208;-55
2022/11/07 01:36:44;;;;;;;5.20;4.90;;;;;;;8.55;100.00;96681.16;5071956;28;20264;-55
2022/11/07 01:39:09;;;;;;;5.17;4.87;;;;;;;8.55;100.00;96681.94;5072137;28;20657;-58
2022/11/07 01:41:36;;;;;;;5.53;5.23;;;;;;;8.58;100.00;96683.34;5072241;28;20182;-58
2022/11/07 01:44:22;;;;;;;5.27;4.87;;;;;;;8.50;100.00;96675.78;5075555;28;20201;-55
2022/11/07 01:46:47;;;;;;;5.27;4.90;;;;;;;8.52;100.00;96677.16;5075080;28;20716;-54
2022/11/07 01:49:35;;;;;;;4.30;4.00;;;;;;;8.49;100.00;96677.59;5075597;28;20291;-59
2022/11/07 01:52:21;;;;;;;4.33;4.03;;;;;;;8.47;100.00;96668.38;5075732;28;20173;-57
2022/11/07 01:55:04;;;;;;;4.50;4.20;;;;;;;8.51;100.00;96679.97;5059096;28;20289;-55
2022/11/07 01:57:35;;;;;;;5.20;4.27;;;;;;;8.49;100.00;96676.78;5075398;28;20177;-58
2022/11/07 02:00:06;;;;;;;4.23;3.93;;;;;;;8.50;100.00;96678.38;5075606;28;20246;-59
2022/11/07 02:02:32;;;;;;;3.73;3.43;;;;;;;8.47;100.00;96679.59;5075156;28;20243;-57
2022/11/07 02:05:00;;;;;;;4.53;4.13;;;;;;;8.58;100.00;96678.13;5075380;28;20181;-58
2022/11/07 02:07:26;;;;;;;3.67;3.47;;;;;;;8.55;100.00;96687.16;5074154;28;20552;-56
2022/11/07 02:09:53;;;;;;;4.10;3.80;;;;;;;8.63;100.00;96686.09;5075119;28;20174;-54
2022/11/07 02:12:21;;;;;;;3.90;3.60;;;;;;;8.67;100.00;96690.66;5073644;28;20644;-57
2022/11/07 02:14:46;;;;;;;4.40;4.20;;;;;;;8.70;100.00;96682.38;5074990;28;20266;-55
2022/11/07 02:17:13;;;;;;;5.33;5.03;;;;;;;8.74;100.00;96673.13;5075021;28;20268;-58
2022/11/07 02:19:42;;;;;;;7.27;6.80;;;;;;;8.75;100.00;96676.50;5075035;28;20174;-57
2022/11/07 02:22:12;;;;;;;4.23;4.00;;;;;;;8.81;100.00;96675.63;5074126;28;20181;-58
2022/11/07 02:24:39;;;;;;;5.47;5.17;;;;;;;8.86;100.00;96675.78;5074294;28;20336;-58
2022/11/07 02:27:13;;;;;;;4.50;4.20;;;;;;;8.90;100.00;96681.38;5074299;28;20680;-57
2022/11/07 02:29:42;;;;;;;4.07;3.80;;;;;;;9.00;100.00;96676.44;5075044;28;20681;-52
2022/11/07 02:32:10;;;;;;;4.40;4.17;;;;;;;9.05;100.00;96681.81;5074228;28;20663;-56
2022/11/07 02:34:36;;;;;;;5.07;4.73;;;;;;;9.05;100.00;96677.38;5072941;28;20212;-52
2022/11/07 02:37:08;;;;;;;4.20;4.00;;;;;;;9.07;100.00;96674.56;5024856;28;20200;-56
2022/11/07 02:39:34;;;;;;;4.43;4.00;;;;;;;9.07;100.00;96677.97;5026387;28;20186;-57
2022/11/07 02:42:00;;;;;;;4.30;4.10;;;;;;;9.11;100.00;96683.53;5019587;28;20179;-57
2022/11/07 02:44:28;;;;;;;5.53;5.03;;;;;;;9.13;100.00;96687.56;5014942;28;20377;-55
2022/11/07 02:46:54;;;;;;;5.27;4.77;;;;;;;9.17;100.00;96688.69;5014948;28;20182;-57
2022/11/07 02:49:19;;;;;;;5.03;4.73;;;;;;;9.25;100.00;96676.34;5014707;28;20182;-56
2022/11/07 02:51:45;;;;;;;5.43;5.13;;;;;;;9.21;100.00;96675.19;5026910;28;20182;-56
2022/11/07 02:54:10;;;;;;;5.53;5.23;;;;;;;9.26;100.00;96677.94;5018110;28;20238;-57
2022/11/07 02:56:36;;;;;;;6.53;6.23;;;;;;;9.23;100.00;96679.19;5030220;28;20247;-53
2022/11/07 02:59:02;;;;;;;8.13;7.53;;;;;;;9.29;100.00;96678.31;5025620;28;20742;-58
2022/11/07 03:01:27;;;;;;;7.50;7.10;;;;;;;9.29;100.00;96680.91;5018107;28;20171;-57
2022/11/07 03:03:53;;;;;;;6.67;6.27;;;;;;;9.30;100.00;96674.69;5033752;28;20285;-61
2022/11/07 03:06:22;;;;;;;7.27;6.77;;;;;;;9.32;100.00;96671.81;5033812;28;20221;-60
2022/11/07 03:08:48;;;;;;;6.47;6.07;;;;;;;9.30;100.00;96676.50;5014321;28;20258;-57
2022/11/07 03:11:18;;;;;;;6.27;5.83;;;;;;;9.33;100.00;96674.22;5014613;28;20282;-56
2022/11/07 03:13:45;;;;;;;7.57;7.07;;;;;;;9.37;100.00;96675.38;5020548;28;20651;-58
2022/11/07 03:16:10;;;;;;;6.97;6.57;;;;;;;9.33;100.00;96676.03;5033896;28;20237;-57
2022/11/07 03:18:36;;;;;;;6.10;5.80;;;;;;;9.41;100.00;96673.94;5029330;28;20186;-57
2022/11/07 03:21:03;;;;;;;4.53;4.23;;;;;;;9.39;100.00;96675.94;5033518;28;20179;-57
2022/11/07 03:23:29;;;;;;;4.00;3.63;;;;;;;9.43;100.00;96671.88;5029183;28;20225;-56
2022/11/07 03:25:54;;;;;;;5.60;4.00;;;;;;;9.48;100.00;96668.56;5032510;28;20538;-57
2022/11/07 03:28:20;;;;;;;4.27;3.97;;;;;;;9.48;100.00;96668.56;5032063;28;20189;-57
2022/11/07 03:30:46;;;;;;;4.03;3.83;;;;;;;9.48;100.00;96671.19;5033207;28;20585;-57
2022/11/07 03:33:11;;;;;;;4.43;4.23;;;;;;;9.53;100.00;96674.75;5024014;28;20257;-56
2022/11/07 03:35:37;;;;;;;4.30;3.93;;;;;;;9.56;100.00;96678.75;5037920;28;20259;-57
2022/11/07 03:38:02;;;;;;;4.20;3.67;;;;;;;9.59;100.00;96676.47;5072263;28;20200;-56
2022/11/07 03:40:28;;;;;;;5.63;5.27;;;;;;;9.62;100.00;96677.84;5073234;28;20621;-58
2022/11/07 03:42:53;;;;;;;6.93;6.53;;;;;;;9.58;100.00;96685.34;5072337;28;20204;-56
2022/11/07 03:45:18;;;;;;;7.63;7.13;;;;;;;9.64;100.00;96681.03;5072881;28;20262;-56
2022/11/07 03:47:45;;;;;;;6.80;6.40;;;;;;;9.64;100.00;96686.25;5072760;28;20222;-56
2022/11/07 03:50:17;;;;;;;5.57;5.27;;;;;;;9.49;100.00;96689.28;5072782;28;20173;-55
2022/11/07 03:52:43;;;;;;;4.10;3.87;;;;;;;9.53;100.00;96693.06;5072740;28;20218;-53
2022/11/07 03:55:10;;;;;;;4.00;3.80;;;;;;;9.58;100.00;96687.94;5072413;28;20636;-55
2022/11/07 03:57:35;;;;;;;4.33;4.13;;;;;;;9.51;100.00;96678.63;5065182;28;20165;-52
2022/11/07 04:00:01;;;;;;;4.93;4.63;;;;;;;9.49;100.00;96691.91;5054944;28;20558;-57
2022/11/07 04:02:26;;;;;;;6.23;5.93;;;;;;;9.59;100.00;96680.91;5072481;28;20584;-56
2022/11/07 04:04:52;;;;;;;7.50;7.10;;;;;;;9.64;100.00;96693.34;5055173;28;20898;-55
2022/11/07 04:07:17;;;;;;;8.07;7.60;;;;;;;9.62;100.00;96692.75;5072614;28;20260;-56
2022/11/07 04:09:42;;;;;;;10.33;9.70;;;;;;;9.64;100.00;96701.97;5070531;28;20260;-58
2022/11/07 04:17:37;;;;;;;8.73;8.23;;;;;;;9.46;100.00;96712.50;5072380;28;20227;-59
2022/11/07 04:20:04;;;;;;;8.03;7.53;;;;;;;9.43;100.00;96715.53;5071786;28;20586;-58
2022/11/07 04:22:29;;;;;;;7.17;6.57;;;;;;;9.40;100.00;96706.31;5072123;28;20192;-60
2022/11/07 04:24:55;;;;;;;5.93;5.53;;;;;;;9.45;100.00;96710.91;5072387;28;20174;-57
2022/11/07 04:30:17;;;;;;;4.87;4.47;;;;;;;9.33;100.00;96718.69;5070667;28;20184;-56
2022/11/07 04:32:51;;;;;;;4.77;4.37;;;;;;;9.29;100.00;96719.34;5072067;28;20252;-55
2022/11/07 04:35:18;;;;;;;5.13;4.90;;;;;;;9.26;100.00;96719.78;5069839;28;20247;-52
2022/11/07 04:37:44;;;;;;;6.17;5.77;;;;;;;9.23;100.00;96717.59;5071326;28;20269;-57
2022/11/07 04:40:10;;;;;;;8.13;7.63;;;;;;;9.22;100.00;96716.81;5071940;28;20256;-57
2022/11/07 04:42:35;;;;;;;5.23;4.83;;;;;;;9.24;100.00;96704.31;5072146;28;20239;-57
2022/11/07 04:45:01;;;;;;;4.90;4.50;;;;;;;9.25;100.00;96713.75;5072001;28;20274;-56
2022/11/07 04:47:26;;;;;;;4.43;4.07;;;;;;;9.29;100.00;96721.97;5072444;28;20201;-59
2022/11/07 04:49:53;;;;;;;5.57;5.10;;;;;;;9.33;100.00;96725.72;5072218;28;20625;-59
2022/11/07 04:52:18;;;;;;;5.17;4.83;;;;;;;9.38;100.00;96715.41;5064040;28;20244;-57
2022/11/07 04:54:43;;;;;;;4.67;4.40;;;;;;;9.33;100.00;96723.09;5071938;28;20300;-55
2022/11/07 04:57:09;;;;;;;4.53;4.33;;;;;;;9.21;100.00;96727.47;5071780;28;20180;-57
2022/11/07 04:59:34;;;;;;;4.80;4.50;;;;;;;9.31;100.00;96733.78;5064018;28;20546;-56
2022/11/07 05:02:01;;;;;;;5.23;4.83;;;;;;;9.19;100.00;96731.09;5071559;28;20272;-58
2022/11/07 05:04:26;;;;;;;4.80;4.20;;;;;;;9.16;100.00;96726.31;5071536;28;20272;-56
2022/11/07 05:06:52;;;;;;;6.40;5.80;;;;;;;9.26;100.00;96725.00;5072080;28;20179;-57
2022/11/07 05:09:18;;;;;;;6.77;6.37;;;;;;;9.26;100.00;96732.84;5072031;28;20180;-56
2022/11/07 05:11:44;;;;;;;5.60;5.30;;;;;;;9.17;100.00;96735.78;5071812;28;20243;-51
2022/11/07 05:14:10;;;;;;;5.30;4.77;;;;;;;9.14;100.00;96728.34;5071405;28;20660;-57
2022/11/07 05:16:36;;;;;;;5.47;5.27;;;;;;;9.07;100.00;96729.47;5072222;28;20296;-54
2022/11/07 05:19:02;;;;;;;6.03;5.73;;;;;;;9.07;100.00;96725.03;5075928;28;20165;-57
2022/11/07 05:21:27;;;;;;;5.20;4.77;;;;;;;9.00;100.00;96734.75;5075542;28;20231;-59
2022/11/07 05:23:53;;;;;;;4.20;4.00;;;;;;;8.90;100.00;96742.31;5075091;28;20193;-57
2022/11/07 05:26:18;;;;;;;7.50;6.90;;;;;;;8.89;100.00;96739.91;5075045;28;20173;-57
2022/11/07 05:28:43;;;;;;;9.10;8.60;;;;;;;8.97;100.00;96727.31;5074778;28;20177;-57
2022/11/07 05:31:14;;;;;;;8.87;8.43;;;;;;;8.89;100.00;96738.09;5075143;28;20185;-57
2022/11/07 05:33:39;;;;;;;8.60;8.17;;;;;;;8.86;100.00;96745.56;5075114;28;20201;-56
2022/11/07 05:36:09;;;;;;;5.50;5.13;;;;;;;8.77;100.00;96731.97;5073162;28;20233;-57
2022/11/07 05:38:34;;;;;;;4.33;4.13;;;;;;;8.75;100.00;96734.78;5074727;28;20660;-56
2022/11/07 05:41:02;;;;;;;5.80;5.50;;;;;;;8.71;100.00;96733.63;5075582;28;20170;-57
2022/11/07 05:43:28;;;;;;;8.17;7.57;;;;;;;8.80;100.00;96746.44;5075135;28;20201;-54
2022/11/07 05:45:58;;;;;;;7.43;6.83;;;;;;;8.75;100.00;96752.28;5075270;28;20214;-57
2022/11/07 05:48:24;;;;;;;6.27;5.77;;;;;;;8.80;100.00;96752.47;5075342;28;20188;-57
2022/11/07 05:50:49;;;;;;;7.27;6.70;;;;;;;8.82;100.00;96752.22;5074801;28;20630;-59
2022/11/07 05:53:14;;;;;;;6.47;6.00;;;;;;;9.00;100.00;96750.44;5074762;28;20204;-56
2022/11/07 05:55:40;;;;;;;8.67;8.23;;;;;;;8.97;100.00;96748.25;5075048;28;20190;-55
2022/11/07 05:58:10;;;;;;;9.43;8.73;;;;;;;8.99;100.00;96748.03;5057780;28;20916;-53
2022/11/07 06:00:35;;;;;;;5.63;5.23;;;;;;;8.94;100.00;96753.13;5074267;28;20638;-55
2022/11/07 06:03:01;;;;;;;4.97;4.57;;;;;;;8.91;100.00;96756.97;5074707;28;20201;-56
2022/11/07 06:05:26;;;;;;;4.10;3.80;;;;;;;9.02;100.00;96765.91;5074646;28;20207;-57
2022/11/07 06:07:52;;;;;;;4.90;4.40;;;;;;;8.87;100.00;96762.81;5074664;28;20227;-57
2022/11/07 06:10:19;;;;;;;5.17;4.67;;;;;;;8.90;100.00;96759.78;5074318;28;20248;-56
2022/11/07 06:12:44;;;;;;;5.97;4.47;;;;;;;8.85;100.00;96754.41;5073974;28;20805;-56
2022/11/07 06:15:10;;;;;;;7.70;7.10;;;;;;;8.89;100.00;96750.34;5074227;28;20193;-54
2022/11/07 06:17:36;;;;;;;8.67;7.87;;;;;;;8.94;100.00;96747.88;5074333;28;20187;-55
2022/11/07 06:20:01;;;;;;;8.20;7.70;;;;;;;9.05;100.00;96744.56;5074393;28;20230;-55
2022/11/07 06:22:28;;;;;;;6.47;5.97;;;;;;;9.06;100.00;96738.31;5074049;28;20189;-52
2022/11/07 06:24:54;;;;;;;6.33;5.90;;;;;;;8.96;100.00;96738.81;5074445;28;20184;-54
2022/11/07 06:27:19;;;;;;;6.37;5.87;;;;;;;8.83;100.00;96752.00;5073868;28;20185;-56
2022/11/07 06:29:44;;;;;;;5.87;5.47;;;;;;;8.85;100.00;96749.19;5073652;28;20212;-53
2022/11/07 06:32:10;;;;;;;5.97;5.30;;;;;;;8.70;100.00;96749.53;5074305;28;20181;-55
2022/11/07 06:34:35;;;;;;;5.60;5.10;;;;;;;8.68;100.00;96746.34;5073024;28;20197;-53
2022/11/07 06:37:01;;;;;;;5.50;5.20;;;;;;;8.76;100.00;96749.47;5067843;28;20197;-55
2022/11/07 06:39:26;;;;;;;6.17;5.53;;;;;;;8.72;100.00;96753.53;5074194;28;20180;-51
2022/11/07 06:41:51;;;;;;;7.13;6.60;;;;;;;8.70;100.00;96754.75;5073827;28;20173;-56
2022/11/07 06:44:17;;;;;;;6.70;6.30;;;;;;;8.70;100.00;96752.94;5074173;28;20204;-62
2022/11/07 06:46:45;;;;;;;6.60;6.00;;;;;;;8.76;100.00;96753.88;5073491;28;20260;-54
2022/11/07 06:49:11;;;;;;;5.73;5.33;;;;;;;8.84;100.00;96758.84;5074008;28;20172;-57
2022/11/07 06:51:37;;;;;;;5.50;5.20;;;;;;;8.73;100.00;96760.34;5073851;28;20173;-63
2022/11/07 06:54:03;;;;;;;6.43;5.93;;;;;;;8.89;100.00;96761.59;5073567;28;20688;-55
2022/11/07 06:56:29;;;;;;;5.67;5.20;;;;;;;8.74;100.00;96769.00;5073404;28;20200;-50
2022/11/07 06:58:54;;;;;;;6.77;6.27;;;;;;;8.73;100.00;96768.19;5073985;28;20701;-50
2022/11/07 07:01:20;;;;;;;9.70;9.03;;;;;;;8.81;100.00;96767.09;5073757;28;20249;-54
2022/11/07 07:03:45;;;;;;;8.90;8.27;;;;;;;8.90;100.00;96772.88;5073403;28;20575;-57
2022/11/07 07:06:15;;;;;;;6.67;6.17;;;;;;;8.97;100.00;96774.38;5073795;28;20177;-58
2022/11/07 07:08:42;;;;;;;6.73;6.33;;;;;;;8.86;100.00;96780.31;5073519;28;20185;-57
2022/11/07 07:11:10;;;;;;;5.60;5.13;;;;;;;9.00;100.00;96786.22;5073273;28;20170;-57
2022/11/07 07:13:36;;;;;;;6.13;5.00;;;;;;;9.06;100.00;96787.97;5073230;28;20327;-57
2022/11/07 07:16:02;;;;;;;6.37;5.60;;;;;;;9.06;100.00;96791.41;5073177;28;20259;-57
2022/11/07 07:18:29;;;;;;;5.73;5.33;;;;;;;9.21;100.00;96790.22;5073086;28;20197;-58
2022/11/07 07:21:06;;;;;;;5.53;4.00;;;;;;;9.36;100.00;96801.16;5073437;28;20180;-56
2022/11/07 07:23:33;;;;;;;4.57;4.17;;;;;;;9.23;100.00;96793.44;5071343;28;20197;-59
2022/11/07 07:26:00;;;;;;;9.03;6.33;;;;;;;9.41;100.00;96802.09;5073159;28;20231;-57
2022/11/07 07:28:25;;;;;;;8.77;8.03;;;;;;;9.41;100.00;96803.91;5072949;28;20185;-58
2022/11/07 07:30:51;;;;;;;8.83;8.30;;;;;;;9.60;100.00;96802.88;5072583;28;20178;-54
2022/11/07 07:33:17;;;;;;;9.67;9.07;;;;;;;9.56;100.00;96812.19;5073014;28;20197;-56
2022/11/07 07:35:42;;;;;;;9.87;9.03;;;;;;;9.63;100.00;96810.31;5071278;28;20709;-59
2022/11/07 07:38:07;;;;;;;9.17;8.47;;;;;;;9.68;100.00;96799.97;5068829;28;20298;-58
2022/11/07 07:40:33;;;;;;;10.27;9.50;;;;;;;9.70;100.00;96804.97;5072313;28;20169;-59
2022/11/07 07:42:58;;;;;;;12.37;11.57;;;;;;;9.87;100.00;96803.34;5072679;28;20213;-57
2022/11/07 07:45:23;;;;;;;11.80;11.00;;;;;;;9.71;100.00;96804.75;5073080;28;20219;-59
2022/11/07 07:47:49;;;;;;;10.37;9.73;;;;;;;9.89;100.00;96809.97;5073288;28;20165;-59
2022/11/07 07:50:14;;;;;;;10.73;9.83;;;;;;;10.05;100.00;96813.78;5073077;28;20256;-58
2022/11/07 07:52:40;;;;;;;7.33;6.87;;;;;;;10.03;100.00;96806.13;5072614;28;20216;-57
2022/11/07 07:55:10;;;;;;;5.53;4.97;;;;;;;9.97;100.00;96812.25;5072663;28;20189;-58
2022/11/07 07:57:40;;;;;;;3.77;3.43;;;;;;;10.22;100.00;96804.31;5072974;28;20176;-57
2022/11/07 08:00:06;;;;;;;5.60;5.13;;;;;;;10.37;100.00;96811.72;5072444;28;20736;-66
2022/11/07 08:02:31;;;;;;;10.13;5.03;;;;;;;10.78;100.00;96808.28;5071118;28;20219;-65
2022/11/07 08:04:57;;;;;;;6.50;6.07;;;;;;;11.25;100.00;96820.38;5071848;28;20181;-65
2022/11/07 08:07:22;;;;;;;6.97;6.37;;;;;;;10.98;100.00;96808.72;5069290;28;20170;-60
2022/11/07 08:09:47;;;;;;;6.43;5.87;;;;;;;11.14;100.00;96807.28;5072627;28;20169;-60
2022/11/07 08:12:13;;;;;;;8.77;8.10;;;;;;;10.87;100.00;96809.53;5071944;28;20165;-62
2022/11/07 08:14:38;;;;;;;5.73;4.60;;;;;;;10.92;100.00;96811.50;5060923;28;20194;-61
2022/11/07 08:17:04;;;;;;;6.23;3.93;;;;;;;10.88;100.00;96805.88;5070877;28;20180;-56
2022/11/07 08:19:29;;;;;;;4.00;3.53;;;;;;;10.70;100.00;96811.25;5073040;28;20169;-57
2022/11/07 08:21:54;;;;;;;6.57;4.57;;;;;;;10.77;100.00;96814.53;5071759;28;20184;-60
2022/11/07 08:24:20;;;;;;;6.60;6.13;;;;;;;10.93;100.00;96813.06;5072438;28;20200;-61
2022/11/07 08:26:45;;;;;;;6.17;5.67;;;;;;;10.96;100.00;96815.25;5071800;28;20759;-60
2022/11/07 08:29:11;;;;;;;7.33;6.93;;;;;;;11.00;100.00;96821.63;5071958;28;20266;-60
2022/11/07 08:31:36;;;;;;;6.13;5.77;;;;;;;10.74;100.00;96817.63;5071538;28;20189;-60
2022/11/07 08:34:02;;;;;;;6.60;5.90;;;;;;;10.84;100.00;96818.66;5072141;28;20201;-59
2022/11/07 08:36:28;;;;;;;6.90;6.13;;;;;;;10.97;100.00;96817.66;5069104;28;20236;-60
2022/11/07 08:38:54;;;;;;;7.47;6.87;;;;;;;10.94;100.00;96823.34;5072020;28;20264;-60
2022/11/07 08:41:20;;;;;;;7.23;6.70;;;;;;;11.07;100.00;96823.13;5071498;28;20261;-60
2022/11/07 08:43:46;;;;;;;8.37;6.57;;;;;;;10.90;100.00;96816.97;5071400;28;20334;-60
2022/11/07 08:46:11;;;;;;;8.70;7.90;;;;;;;10.95;100.00;96826.75;5071557;28;20183;-60
2022/11/07 08:48:38;;;;;;;9.47;8.73;;;;;;;10.95;100.00;96822.31;5071695;28;20182;-59
2022/11/07 08:51:04;;;;;;;9.30;8.40;;;;;;;11.02;100.00;96816.97;5072384;28;20212;-61
2022/11/07 08:53:30;;;;;;;8.10;7.53;;;;;;;11.10;100.00;96824.47;5075529;28;20228;-62
2022/11/07 08:56:03;;;;;;;6.73;6.20;;;;;;;11.06;100.00;96816.28;5076052;28;20238;-61
2022/11/07 08:58:29;;;;;;;8.33;7.73;;;;;;;11.20;100.00;96815.00;5075069;28;20173;-59
2022/11/07 09:00:55;;;;;;;7.47;6.90;;;;;;;11.27;100.00;96820.13;5075689;28;20199;-61
2022/11/07 09:03:20;;;;;;;13.17;12.40;;;;;;;11.50;100.00;96820.09;5075062;28;20200;-59
2022/11/07 09:05:45;;;;;;;16.43;15.20;;;;;;;11.62;100.00;96822.72;5075815;28;20181;-59
2022/11/07 09:08:11;;;;;;;12.17;11.27;;;;;;;11.59;100.00;96818.72;5075508;28;20252;-59
2022/11/07 09:10:36;;;;;;;8.60;7.73;;;;;;;11.68;100.00;96819.97;5075723;28;20192;-61
2022/11/07 09:13:02;;;;;;;7.17;6.47;;;;;;;11.77;100.00;96823.03;5074824;28;20291;-59
2022/11/07 09:15:27;;;;;;;6.00;5.60;;;;;;;11.89;100.00;96818.56;5075474;28;20198;-59
2022/11/07 09:17:53;;;;;;;8.07;5.57;;;;;;;11.85;100.00;96820.06;5075179;28;20262;-60
2022/11/07 09:20:18;;;;;;;8.30;7.73;;;;;;;11.93;100.00;96832.00;5075404;28;20175;-60
2022/11/07 09:22:44;;;;;;;7.27;5.63;;;;;;;11.99;100.00;96829.25;5075277;28;20208;-60
2022/11/07 09:25:10;;;;;;;4.73;4.33;;;;;;;12.06;100.00;96835.16;5075091;28;20170;-59
2022/11/07 09:27:36;;;;;;;11.43;10.77;;;;;;;12.21;100.00;96839.91;5074852;28;20231;-60
2022/11/07 09:30:03;;;;;;;12.27;11.27;;;;;;;12.18;100.00;96832.50;5075091;28;20188;-58
2022/11/07 09:32:28;;;;;;;12.37;11.20;;;;;;;12.27;100.00;96835.53;5074990;28;20182;-59
2022/11/07 09:34:53;;;;;;;9.37;8.43;;;;;;;12.44;100.00;96841.63;5072713;28;20850;-59
2022/11/07 09:37:20;;;;;;;6.83;6.27;;;;;;;12.34;100.00;96841.44;5074121;28;20730;-59
2022/11/07 09:39:46;;;;;;;5.70;4.93;;;;;;;12.50;100.00;96846.75;5074884;28;20217;-60
2022/11/07 09:42:42;;;;;;;6.73;4.90;;;;;;;12.45;100.00;96844.03;5075006;28;20235;-58
2022/11/07 09:45:12;;;;;;;5.23;4.83;;;;;;;12.48;100.00;96850.66;5074911;28;20185;-59
2022/11/07 09:47:44;;;;;;;5.37;4.20;;;;;;;12.40;100.00;96851.03;5075093;28;20182;-60
2022/11/07 09:50:27;;;;;;;7.27;4.93;;;;;;;12.40;100.00;96853.66;5074401;28;20676;-60
2022/11/07 09:53:07;;;;;;;8.43;7.73;;;;;;;12.65;100.00;96861.19;5074838;28;20287;-59
2022/11/07 09:55:40;;;;;;;21.10;19.73;;;;;;;12.61;100.00;96852.97;5057304;28;20695;-58
2022/11/07 09:58:23;;;;;;;25.43;23.73;;;;;;;12.72;100.00;96846.84;5074635;28;20197;-60
2022/11/07 10:00:49;;;;;;;22.10;20.70;;;;;;;12.90;99.71;96846.63;5074669;28;20252;-60
2022/11/07 10:03:14;;;;;;;14.67;13.43;;;;;;;12.76;99.42;96844.53;5073611;28;20300;-59
2022/11/07 10:06:10;;;;;;;12.00;11.33;;;;;;;12.70;100.00;96859.44;5074675;28;20173;-59
2022/11/07 10:08:38;;;;;;;10.03;9.27;;;;;;;12.79;99.92;96855.38;5073782;28;20174;-60
2022/11/07 10:11:29;;;;;;;10.03;9.23;;;;;;;12.62;100.00;96859.81;5059667;28;20204;-60
2022/11/07 10:14:12;;;;;;;11.00;10.30;;;;;;;12.90;98.98;96848.44;5073512;28;20197;-60
2022/11/07 10:17:03;;;;;;;67.37;59.33;;;;;;;12.86;98.41;96850.75;5073057;28;20320;-61
2022/11/07 10:19:47;;;;;;;60.20;56.77;;;;;;;12.93;98.14;96849.81;5063954;28;20196;-60
2022/11/07 10:22:33;;;;;;;11.87;10.87;;;;;;;12.85;98.32;96848.38;5074123;28;20176;-61
2022/11/07 10:25:19;;;;;;;15.70;14.70;;;;;;;12.95;97.84;96848.53;5073517;28;20264;-61
2022/11/07 10:27:51;;;;;;;12.57;11.70;;;;;;;13.10;96.85;96853.19;5074240;28;20718;-59
2022/11/07 10:30:19;;;;;;;13.33;12.47;;;;;;;12.99;97.30;96852.25;5073746;28;20169;-62
2022/11/07 10:33:06;;;;;;;11.23;10.43;;;;;;;13.21;96.54;96845.25;5073985;28;20197;-61
2022/11/07 10:35:40;;;;;;;12.77;11.90;;;;;;;13.09;96.17;96846.38;5049575;28;20317;-61
2022/11/07 10:38:20;;;;;;;11.47;10.57;;;;;;;13.23;95.29;96834.50;5027598;28;20225;-61
2022/11/07 10:40:47;;;;;;;5.83;5.30;;;;;;;13.39;94.20;96838.13;5016725;28;20258;-61
2022/11/07 10:43:40;;;;;;;7.87;7.17;;;;;;;13.56;91.92;96838.88;5031577;28;20213;-61
2022/11/07 10:46:34;;;;;;;11.87;11.03;;;;;;;13.47;92.92;96840.34;5026960;28;20545;-58
2022/11/07 10:49:02;;;;;;;17.40;16.20;;;;;;;13.81;91.04;96839.22;5017111;28;20179;-58
2022/11/07 10:51:38;;;;;;;24.27;22.53;;;;;;;13.56;92.70;96830.97;5032231;28;20361;-62
2022/11/07 10:54:05;;;;;;;25.23;23.63;;;;;;;13.64;91.64;96828.75;5022640;28;20198;-58
2022/11/07 10:56:43;;;;;;;39.97;37.47;;;;;;;13.79;90.03;96822.06;5033068;28;20202;-61
2022/11/07 10:59:13;;;;;;;32.00;30.00;;;;;;;13.74;90.08;96818.31;5015391;28;20584;-61
2022/11/07 11:01:39;;;;;;;71.90;67.63;;;;;;;13.62;90.88;96820.28;5020900;28;20166;-60
2022/11/07 11:04:04;;;;;;;12.43;11.73;;;;;;;13.48;91.67;96816.41;5027523;28;20254;-60
2022/11/07 11:06:30;;;;;;;22.07;20.70;;;;;;;13.51;90.95;96802.75;5031954;28;20179;-61
2022/11/07 11:08:57;;;;;;;8.80;8.10;;;;;;;13.27;92.56;96811.91;5019696;28;20658;-61
2022/11/07 11:11:33;;;;;;;25.17;23.57;;;;;;;13.36;91.95;96801.78;5033168;28;20166;-58
2022/11/07 11:14:13;;;;;;;24.23;22.77;;;;;;;13.33;91.92;96805.66;5021601;28;20675;-61
2022/11/07 11:16:40;;;;;;;24.97;23.57;;;;;;;13.36;92.24;96807.03;5013314;28;20213;-60
2022/11/07 11:19:18;;;;;;;327.57;306.03;;;;;;;13.49;91.51;96804.81;5013754;28;20180;-60
2022/11/07 11:21:46;;;;;;;18.47;17.10;;;;;;;13.40;92.15;96811.56;5015350;28;20194;-61
2022/11/07 11:24:31;;;;;;;19.13;17.93;;;;;;;13.44;91.34;96811.88;5021264;28;20532;-60
2022/11/07 11:27:02;;;;;;;18.73;17.60;;;;;;;13.60;90.85;96813.66;5021048;28;20229;-62
2022/11/07 11:29:41;;;;;;;19.80;18.60;;;;;;;13.63;90.38;96819.25;5014482;28;20557;-62
2022/11/07 11:32:31;;;;;;;21.70;20.13;;;;;;;13.64;90.46;96818.22;5020885;28;20179;-60
2022/11/07 11:35:11;;;;;;;58.00;54.07;;;;;;;13.91;90.06;96825.38;5015449;28;21425;-61
2022/11/07 11:37:41;;;;;;;23.60;22.10;;;;;;;13.95;89.64;96815.91;5013279;28;20191;-62
2022/11/07 11:40:13;;;;;;;17.70;16.70;;;;;;;14.01;89.34;96814.94;5024434;28;20168;-61
2022/11/07 11:42:53;;;;;;;18.70;17.50;;;;;;;14.11;88.02;96812.41;5031326;28;20556;-61